Time,TemperatureF,DewpointF,PressureIn,WindDirection,WindDirectionDegrees,WindSpeedMPH,WindSpeedGustMPH,Humidity,HourlyPrecipIn,Conditions,Clouds,dailyrainin,SoftwareType,DateUTC
2013-01-14 00:00:00,5.9,4.6,30.05,NE,56,0.0,0.0,94,0.00,,,0.00,Weather View 32 v70,2013-01-14 07:00:00,
2013-01-14 00:05:00,5.9,4.5,30.05,NE,56,0.0,0.0,94,0.00,,,0.00,Weather View 32 v70,2013-01-14 07:05:00,
2013-01-14 00:15:00,5.9,4.5,30.05,NE,56,0.0,0.0,94,0.00,,,0.00,Weather View 32 v70,2013-01-14 07:15:00,
2013-01-14 00:20:00,5.9,4.4,30.05,NE,56,0.0,0.0,94,0.00,,,0.00,Weather View 32 v70,2013-01-14 07:20:00,
2013-01-14 00:25:00,5.9,4.5,30.04,NE,56,0.0,0.0,94,0.00,,,0.00,Weather View 32 v70,2013-01-14 07:25:00,
2013-01-14 00:30:00,6.0,4.5,30.04,NE,56,0.0,0.0,94,0.00,,,0.00,Weather View 32 v70,2013-01-14 07:30:00,
2013-01-14 00:40:00,6.2,4.5,30.04,NE,56,0.0,0.0,92,0.00,,,0.00,Weather View 32 v70,2013-01-14 07:40:00,
2013-01-14 00:45:00,6.2,4.5,30.04,NE,56,0.0,0.0,93,0.00,,,0.00,Weather View 32 v70,2013-01-14 07:45:00,
2013-01-14 00:50:00,6.0,4.3,30.04,NE,56,0.0,0.0,93,0.00,,,0.00,Weather View 32 v70,2013-01-14 07:50:00,
2013-01-14 00:55:00,5.8,4.1,30.04,NE,56,0.0,0.0,93,0.00,,,0.00,Weather View 32 v70,2013-01-14 07:55:00,
2013-01-14 01:00:00,5.6,3.9,30.04,NE,56,0.0,0.0,93,0.00,,,0.00,Weather View 32 v70,2013-01-14 08:00:00,
2013-01-14 01:05:00,5.6,3.9,30.04,NE,56,0.0,0.0,93,0.00,,,0.00,Weather View 32 v70,2013-01-14 08:05:00,
2013-01-14 01:10:00,5.4,3.7,30.03,NE,56,0.0,0.0,92,0.00,,,0.00,Weather View 32 v70,2013-01-14 08:10:00,
2013-01-14 01:15:00,5.2,3.4,30.03,NE,56,0.0,0.0,92,0.00,,,0.00,Weather View 32 v70,2013-01-14 08:15:00,
2013-01-14 01:25:00,4.7,2.6,30.03,NE,56,0.0,0.0,91,0.00,,,0.00,Weather View 32 v70,2013-01-14 08:25:00,
2013-01-14 01:30:00,4.6,2.4,30.03,NE,56,0.0,0.0,91,0.00,,,0.00,Weather View 32 v70,2013-01-14 08:30:00,
2013-01-14 01:35:00,4.5,2.2,30.03,NE,56,0.0,0.0,90,0.00,,,0.00,Weather View 32 v70,2013-01-14 08:35:00,
2013-01-14 01:40:00,4.5,2.2,30.03,NE,56,0.0,0.0,90,0.00,,,0.00,Weather View 32 v70,2013-01-14 08:40:00,
2013-01-14 01:45:00,4.5,2.2,30.03,NE,56,0.0,0.0,90,0.00,,,0.00,Weather View 32 v70,2013-01-14 08:45:00,
2013-01-14 01:55:00,4.5,2.0,30.04,NE,56,0.0,0.0,89,0.00,,,0.00,Weather View 32 v70,2013-01-14 08:55:00,
2013-01-14 02:00:00,4.5,1.9,30.04,NE,56,0.0,0.0,89,0.00,,,0.00,Weather View 32 v70,2013-01-14 09:00:00,
2013-01-14 02:05:00,4.4,1.7,30.04,NE,56,0.0,0.0,88,0.00,,,0.00,Weather View 32 v70,2013-01-14 09:05:00,
2013-01-14 02:15:00,4.4,1.4,30.04,NE,56,0.0,0.0,87,0.00,,,0.00,Weather View 32 v70,2013-01-14 09:15:00,
2013-01-14 02:20:00,4.3,1.1,30.04,NE,56,0.0,0.0,86,0.00,,,0.00,Weather View 32 v70,2013-01-14 09:20:00,
2013-01-14 02:30:00,4.2,0.8,30.04,NE,56,0.0,0.0,85,0.00,,,0.00,Weather View 32 v70,2013-01-14 09:30:00,
2013-01-14 02:35:00,4.3,0.9,30.04,NE,56,0.0,0.0,86,0.00,,,0.00,Weather View 32 v70,2013-01-14 09:35:00,
2013-01-14 02:40:00,4.2,0.8,30.04,NE,56,0.0,0.0,85,0.00,,,0.00,Weather View 32 v70,2013-01-14 09:40:00,
2013-01-14 02:45:00,4.2,0.8,30.04,NE,56,0.0,0.0,85,0.00,,,0.00,Weather View 32 v70,2013-01-14 09:45:00,
2013-01-14 02:50:00,4.3,0.8,30.05,NE,56,0.0,0.0,85,0.00,,,0.00,Weather View 32 v70,2013-01-14 09:50:00,
2013-01-14 03:00:00,4.4,0.7,30.05,NE,56,0.0,0.0,84,0.00,,,0.00,Weather View 32 v70,2013-01-14 10:00:00,
2013-01-14 03:06:00,4.6,1.0,30.04,NE,56,0.0,0.0,85,0.00,,,0.00,Weather View 32 v70,2013-01-14 10:06:00,
2013-01-14 03:15:00,4.9,1.2,30.04,NE,56,0.0,0.0,84,0.00,,,0.00,Weather View 32 v70,2013-01-14 10:15:00,
2013-01-14 03:20:00,4.9,1.2,30.04,NE,56,0.0,0.0,84,0.00,,,0.00,Weather View 32 v70,2013-01-14 10:20:00,
2013-01-14 03:25:00,5.0,1.3,30.04,NE,56,0.0,0.0,84,0.00,,,0.00,Weather View 32 v70,2013-01-14 10:25:00,
2013-01-14 03:35:00,4.8,1.0,30.04,NE,56,0.0,0.0,84,0.00,,,0.00,Weather View 32 v70,2013-01-14 10:35:00,
2013-01-14 03:40:00,4.8,1.0,30.04,NE,56,0.0,0.0,84,0.00,,,0.00,Weather View 32 v70,2013-01-14 10:40:00,
2013-01-14 03:45:00,4.9,1.1,30.04,NE,56,0.0,0.0,84,0.00,,,0.00,Weather View 32 v70,2013-01-14 10:45:00,
2013-01-14 03:50:00,4.9,1.2,30.04,NE,56,0.0,0.0,84,0.00,,,0.00,Weather View 32 v70,2013-01-14 10:50:00,
2013-01-14 04:00:00,5.0,1.1,30.04,NE,56,0.0,0.0,83,0.00,,,0.00,Weather View 32 v70,2013-01-14 11:00:00,
2013-01-14 04:05:00,5.0,1.0,30.04,NE,56,0.0,0.0,83,0.00,,,0.00,Weather View 32 v70,2013-01-14 11:05:00,
2013-01-14 04:10:00,5.0,0.9,30.04,NE,56,0.0,0.0,83,0.00,,,0.00,Weather View 32 v70,2013-01-14 11:10:00,
2013-01-14 04:15:00,5.1,1.1,30.04,NE,56,0.0,0.0,83,0.00,,,0.00,Weather View 32 v70,2013-01-14 11:15:00,
2013-01-14 04:20:00,5.1,1.2,30.04,NE,56,0.0,0.0,83,0.00,,,0.00,Weather View 32 v70,2013-01-14 11:20:00,
2013-01-14 04:25:00,5.1,1.1,30.04,NE,56,0.0,0.0,83,0.00,,,0.00,Weather View 32 v70,2013-01-14 11:25:00,
2013-01-14 04:35:00,5.1,1.1,30.04,NE,56,0.0,0.0,83,0.00,,,0.00,Weather View 32 v70,2013-01-14 11:35:00,
2013-01-14 04:40:00,5.2,1.2,30.04,NE,56,0.0,0.0,83,0.00,,,0.00,Weather View 32 v70,2013-01-14 11:40:00,
2013-01-14 04:45:00,5.3,1.4,30.04,NE,56,0.0,0.0,84,0.00,,,0.00,Weather View 32 v70,2013-01-14 11:45:00,
2013-01-14 04:50:00,5.4,1.5,30.05,NE,56,0.0,0.0,83,0.00,,,0.00,Weather View 32 v70,2013-01-14 11:50:00,
2013-01-14 04:55:00,5.5,1.5,30.04,NE,56,0.0,0.0,83,0.00,,,0.00,Weather View 32 v70,2013-01-14 11:55:00,
2013-01-14 05:00:00,5.4,1.4,30.04,NE,56,0.0,0.0,83,0.00,,,0.00,Weather View 32 v70,2013-01-14 12:00:00,
2013-01-14 05:05:00,5.4,1.4,30.04,NE,56,0.0,0.0,83,0.00,,,0.00,Weather View 32 v70,2013-01-14 12:05:00,
2013-01-14 05:15:00,5.3,1.4,30.05,NE,56,0.0,0.0,84,0.00,,,0.00,Weather View 32 v70,2013-01-14 12:15:00,
2013-01-14 05:20:00,5.3,1.5,30.05,NE,56,0.0,0.0,84,0.00,,,0.00,Weather View 32 v70,2013-01-14 12:20:00,
2013-01-14 05:25:00,5.2,1.4,30.05,NE,56,0.0,0.0,84,0.00,,,0.00,Weather View 32 v70,2013-01-14 12:25:00,
2013-01-14 05:30:00,5.2,1.4,30.05,NE,56,0.0,0.0,84,0.00,,,0.00,Weather View 32 v70,2013-01-14 12:30:00,
2013-01-14 05:35:00,5.2,1.4,30.05,NE,56,0.0,0.0,84,0.00,,,0.00,Weather View 32 v70,2013-01-14 12:35:00,
2013-01-14 05:45:00,5.2,1.2,30.06,NE,56,0.0,0.0,83,0.00,,,0.00,Weather View 32 v70,2013-01-14 12:45:00,
2013-01-14 05:50:00,5.2,1.2,30.06,NE,56,0.0,0.0,83,0.00,,,0.00,Weather View 32 v70,2013-01-14 12:50:00,
2013-01-14 05:55:00,5.1,1.1,30.06,NE,56,0.0,0.0,83,0.00,,,0.00,Weather View 32 v70,2013-01-14 12:55:00,
2013-01-14 06:00:00,5.0,1.0,30.06,NE,56,0.0,0.0,83,0.00,,,0.00,Weather View 32 v70,2013-01-14 13:00:00,
2013-01-14 06:05:00,4.9,1.0,30.06,NE,56,0.0,0.0,83,0.00,,,0.00,Weather View 32 v70,2013-01-14 13:05:00,
2013-01-14 06:15:00,5.0,1.1,30.07,NE,56,0.0,0.0,84,0.00,,,0.00,Weather View 32 v70,2013-01-14 13:15:00,
2013-01-14 06:20:00,5.1,1.3,30.07,NE,56,0.0,0.0,84,0.00,,,0.00,Weather View 32 v70,2013-01-14 13:20:00,
2013-01-14 06:30:00,5.2,1.6,30.08,NE,56,0.0,0.0,85,0.00,,,0.00,Weather View 32 v70,2013-01-14 13:30:00,
2013-01-14 06:35:00,5.3,1.8,30.08,NE,56,0.0,0.0,85,0.00,,,0.00,Weather View 32 v70,2013-01-14 13:35:00,
2013-01-14 06:40:00,5.4,2.0,30.08,NE,56,0.0,0.0,85,0.00,,,0.00,Weather View 32 v70,2013-01-14 13:40:00,
2013-01-14 06:45:00,5.4,2.1,30.08,NE,56,0.0,0.0,86,0.00,,,0.00,Weather View 32 v70,2013-01-14 13:45:00,
2013-01-14 06:50:00,5.5,2.2,30.08,NE,56,0.0,0.0,86,0.00,,,0.00,Weather View 32 v70,2013-01-14 13:50:00,
2013-01-14 06:55:00,5.6,2.4,30.08,NE,56,0.0,0.0,86,0.00,,,0.00,Weather View 32 v70,2013-01-14 13:55:00,
2013-01-14 07:00:00,5.6,2.4,30.08,NE,56,0.0,0.0,86,0.00,,,0.00,Weather View 32 v70,2013-01-14 14:00:00,
2013-01-14 07:05:00,5.7,2.5,30.08,NE,56,0.0,0.0,86,0.00,,,0.00,Weather View 32 v70,2013-01-14 14:05:00,
2013-01-14 07:15:00,5.7,2.6,30.09,NE,56,0.0,0.0,87,0.00,,,0.00,Weather View 32 v70,2013-01-14 14:15:00,
2013-01-14 07:20:00,5.7,2.6,30.09,NE,56,0.0,0.0,87,0.00,,,0.00,Weather View 32 v70,2013-01-14 14:20:00,
2013-01-14 07:25:00,5.8,2.8,30.09,NE,56,0.0,0.0,87,0.00,,,0.00,Weather View 32 v70,2013-01-14 14:25:00,
2013-01-14 07:30:00,5.8,2.8,30.09,NE,56,0.0,0.0,87,0.00,,,0.00,Weather View 32 v70,2013-01-14 14:30:00,
2013-01-14 07:35:00,5.9,3.0,30.09,NE,56,0.0,0.0,88,0.00,,,0.00,Weather View 32 v70,2013-01-14 14:35:00,
2013-01-14 07:45:00,6.1,3.3,30.10,NE,56,0.0,0.0,88,0.00,,,0.00,Weather View 32 v70,2013-01-14 14:45:00,
2013-01-14 07:50:00,6.1,3.3,30.10,NE,56,0.0,0.0,88,0.00,,,0.00,Weather View 32 v70,2013-01-14 14:50:00,
2013-01-14 07:55:00,6.1,3.4,30.10,NE,56,0.0,0.0,88,0.00,,,0.00,Weather View 32 v70,2013-01-14 14:55:00,
2013-01-14 08:00:00,6.1,3.4,30.10,NE,56,0.0,0.0,88,0.00,,,0.00,Weather View 32 v70,2013-01-14 15:00:00,
2013-01-14 08:05:00,6.1,3.4,30.10,NE,56,0.0,0.0,89,0.00,,,0.00,Weather View 32 v70,2013-01-14 15:05:00,
2013-01-14 08:15:00,6.3,3.7,30.10,NE,56,0.0,0.0,89,0.00,,,0.00,Weather View 32 v70,2013-01-14 15:15:00,
2013-01-14 08:20:00,6.4,3.8,30.10,NE,56,0.0,0.0,89,0.00,,,0.00,Weather View 32 v70,2013-01-14 15:20:00,
2013-01-14 08:25:00,6.4,3.8,30.10,NE,56,0.0,0.0,89,0.00,,,0.00,Weather View 32 v70,2013-01-14 15:25:00,
2013-01-14 08:35:00,6.3,3.7,30.10,NE,56,0.0,0.0,89,0.00,,,0.00,Weather View 32 v70,2013-01-14 15:35:00,
2013-01-14 08:40:00,6.2,3.6,30.10,NE,56,0.0,0.0,89,0.00,,,0.00,Weather View 32 v70,2013-01-14 15:40:00,
2013-01-14 08:45:00,6.3,3.7,30.10,NE,56,0.0,0.0,89,0.00,,,0.00,Weather View 32 v70,2013-01-14 15:45:00,
2013-01-14 08:55:00,6.5,3.8,30.10,NE,56,0.0,0.0,89,0.00,,,0.00,Weather View 32 v70,2013-01-14 15:55:00,
2013-01-14 09:00:00,6.8,4.0,30.10,NE,56,0.0,0.0,88,0.00,,,0.00,Weather View 32 v70,2013-01-14 16:00:00,
2013-01-14 09:05:00,6.9,3.9,30.10,NE,56,0.0,0.0,87,0.00,,,0.00,Weather View 32 v70,2013-01-14 16:05:00,
2013-01-14 09:15:00,7.0,3.9,30.10,NE,56,0.0,0.0,87,0.00,,,0.00,Weather View 32 v70,2013-01-14 16:15:00,
2013-01-14 09:20:00,7.2,4.0,30.10,NE,56,0.0,0.0,87,0.00,,,0.00,Weather View 32 v70,2013-01-14 16:20:00,
2013-01-14 09:25:00,7.6,4.3,30.10,NE,56,0.0,0.0,86,0.00,,,0.00,Weather View 32 v70,2013-01-14 16:25:00,
2013-01-14 09:35:00,8.0,4.5,30.09,NE,56,0.0,0.0,85,0.00,,,0.00,Weather View 32 v70,2013-01-14 16:35:00,
2013-01-14 09:45:00,8.6,5.0,30.09,NE,56,0.0,0.0,85,0.00,,,0.00,Weather View 32 v70,2013-01-14 16:45:00,
2013-01-14 09:50:00,9.0,5.3,30.09,NE,56,0.0,0.0,85,0.00,,,0.00,Weather View 32 v70,2013-01-14 16:50:00,
2013-01-14 09:55:00,8.9,5.0,30.09,NE,56,0.0,0.0,84,0.00,,,0.00,Weather View 32 v70,2013-01-14 16:55:00,
2013-01-14 10:00:00,8.6,4.8,30.09,NE,56,0.0,0.0,84,0.00,,,0.00,Weather View 32 v70,2013-01-14 17:00:00,
2013-01-14 10:10:00,8.5,4.9,30.09,NE,56,0.0,0.0,85,0.00,,,0.00,Weather View 32 v70,2013-01-14 17:10:00,
2013-01-14 10:20:00,8.6,4.7,30.08,NE,56,0.0,0.0,84,0.00,,,0.00,Weather View 32 v70,2013-01-14 17:20:00,
2013-01-14 10:30:00,8.5,4.7,30.08,NE,56,0.0,0.0,84,0.00,,,0.00,Weather View 32 v70,2013-01-14 17:30:00,
2013-01-14 10:35:00,8.5,4.7,30.08,NE,56,0.0,0.0,84,0.00,,,0.00,Weather View 32 v70,2013-01-14 17:35:00,
2013-01-14 10:40:00,8.6,4.7,30.08,NE,56,0.0,0.0,84,0.00,,,0.00,Weather View 32 v70,2013-01-14 17:40:00,
2013-01-14 10:50:00,8.5,4.6,30.08,NE,56,0.0,0.0,84,0.00,,,0.00,Weather View 32 v70,2013-01-14 17:50:00,
2013-01-14 10:55:00,9.1,5.3,30.07,NE,56,0.0,0.0,84,0.00,,,0.00,Weather View 32 v70,2013-01-14 17:55:00,
2013-01-14 11:05:00,10.3,5.4,30.06,NE,56,0.0,0.0,80,0.00,,,0.00,Weather View 32 v70,2013-01-14 18:05:00,
2013-01-14 11:10:00,10.1,5.6,30.06,NE,56,0.0,0.0,82,0.00,,,0.00,Weather View 32 v70,2013-01-14 18:10:00,
2013-01-14 11:15:00,10.1,5.3,30.05,NE,56,0.0,0.0,81,0.00,,,0.00,Weather View 32 v70,2013-01-14 18:15:00,
2013-01-14 11:25:00,10.2,5.1,30.04,NE,56,0.0,0.0,80,0.00,,,0.00,Weather View 32 v70,2013-01-14 18:25:00,
2013-01-14 11:30:00,10.4,5.3,30.03,NE,56,0.0,0.0,80,0.00,,,0.00,Weather View 32 v70,2013-01-14 18:30:00,
2013-01-14 11:35:00,10.4,5.0,30.03,NE,56,0.0,0.0,79,0.00,,,0.00,Weather View 32 v70,2013-01-14 18:35:00,
2013-01-14 11:40:00,10.6,5.2,30.03,NE,56,0.0,0.0,78,0.00,,,0.00,Weather View 32 v70,2013-01-14 18:40:00,
2013-01-14 11:45:00,10.9,5.3,30.03,NE,56,0.0,0.0,78,0.00,,,0.00,Weather View 32 v70,2013-01-14 18:45:00,
2013-01-14 11:50:00,10.9,5.3,30.02,NE,56,0.0,0.0,78,0.00,,,0.00,Weather View 32 v70,2013-01-14 18:50:00,
2013-01-14 11:55:00,11.6,6.1,30.02,NE,56,0.0,0.0,78,0.00,,,0.00,Weather View 32 v70,2013-01-14 18:55:00,
2013-01-14 12:00:00,12.4,6.5,30.01,NE,56,0.0,1.0,77,0.00,,,0.00,Weather View 32 v70,2013-01-14 19:00:00,
2013-01-14 12:10:00,13.1,6.4,30.01,NE,56,0.0,1.0,74,0.00,,,0.00,Weather View 32 v70,2013-01-14 19:10:00,
2013-01-14 12:15:00,13.0,6.3,30.00,NE,56,0.0,1.0,74,0.00,,,0.00,Weather View 32 v70,2013-01-14 19:15:00,
2013-01-14 12:20:00,13.5,6.8,30.00,NE,56,0.0,1.0,74,0.00,,,0.00,Weather View 32 v70,2013-01-14 19:20:00,
2013-01-14 12:25:00,13.6,6.3,30.00,NE,56,0.0,1.0,72,0.00,,,0.00,Weather View 32 v70,2013-01-14 19:25:00,
2013-01-14 12:35:00,13.0,6.4,29.99,NE,56,0.0,1.0,74,0.00,,,0.00,Weather View 32 v70,2013-01-14 19:35:00,
2013-01-14 12:45:00,13.2,6.5,29.99,NE,56,0.0,1.0,74,0.00,,,0.00,Weather View 32 v70,2013-01-14 19:45:00,
2013-01-14 12:50:00,13.7,6.7,29.99,NE,56,0.0,1.0,73,0.00,,,0.00,Weather View 32 v70,2013-01-14 19:50:00,
2013-01-14 13:00:00,14.6,7.1,29.98,NE,56,0.0,0.0,72,0.00,,,0.00,Weather View 32 v70,2013-01-14 20:00:00,
2013-01-14 13:05:00,14.4,6.8,29.98,NE,56,0.0,0.0,71,0.00,,,0.00,Weather View 32 v70,2013-01-14 20:05:00,
2013-01-14 13:10:00,14.6,7.2,29.98,NE,56,0.0,0.0,72,0.00,,,0.00,Weather View 32 v70,2013-01-14 20:10:00,
2013-01-14 13:15:00,14.8,7.0,29.98,NE,56,0.0,0.0,71,0.00,,,0.00,Weather View 32 v70,2013-01-14 20:15:00,
2013-01-14 13:25:00,14.4,6.8,29.98,NE,56,0.0,0.0,71,0.00,,,0.00,Weather View 32 v70,2013-01-14 20:25:00,
2013-01-14 13:30:00,14.5,6.8,29.98,NE,56,0.0,0.0,71,0.00,,,0.00,Weather View 32 v70,2013-01-14 20:30:00,
2013-01-14 13:35:00,15.0,7.1,29.98,NE,56,0.0,0.0,71,0.00,,,0.00,Weather View 32 v70,2013-01-14 20:35:00,
2013-01-14 13:45:00,15.2,7.2,29.98,NE,56,0.0,0.0,70,0.00,,,0.00,Weather View 32 v70,2013-01-14 20:45:00,
2013-01-14 13:50:00,15.0,7.2,29.98,NE,56,0.0,0.0,71,0.00,,,0.00,Weather View 32 v70,2013-01-14 20:50:00,
2013-01-14 13:55:00,15.3,7.6,29.98,WSW,242,0.0,0.0,71,0.00,,,0.00,Weather View 32 v70,2013-01-14 20:55:00,
2013-01-14 14:00:00,15.9,7.6,29.98,WSW,242,0.0,0.0,69,0.00,,,0.00,Weather View 32 v70,2013-01-14 21:00:00,
2013-01-14 14:05:00,16.0,7.6,29.99,WSW,242,0.0,0.0,69,0.00,,,0.00,Weather View 32 v70,2013-01-14 21:05:00,
2013-01-14 14:10:00,16.1,7.6,29.99,WSW,242,0.0,0.0,69,0.00,,,0.00,Weather View 32 v70,2013-01-14 21:10:00,
2013-01-14 14:20:00,15.7,7.6,29.99,WSW,242,0.0,0.0,70,0.00,,,0.00,Weather View 32 v70,2013-01-14 21:20:00,
2013-01-14 14:25:00,15.8,7.7,30.00,WSW,242,0.0,0.0,70,0.00,,,0.00,Weather View 32 v70,2013-01-14 21:25:00,
2013-01-14 14:30:00,15.9,7.9,30.00,WSW,242,0.0,0.0,70,0.00,,,0.00,Weather View 32 v70,2013-01-14 21:30:00,
2013-01-14 14:35:00,15.8,7.8,30.00,WSW,242,0.0,0.0,70,0.00,,,0.00,Weather View 32 v70,2013-01-14 21:35:00,
2013-01-14 14:40:00,15.3,7.5,30.00,WSW,242,0.0,0.0,71,0.00,,,0.00,Weather View 32 v70,2013-01-14 21:40:00,
2013-01-14 14:45:00,14.8,7.5,30.00,WSW,242,0.0,0.0,72,0.00,,,0.00,Weather View 32 v70,2013-01-14 21:45:00,
2013-01-14 14:50:00,14.8,7.5,30.01,WSW,242,0.0,0.0,72,0.00,,,0.00,Weather View 32 v70,2013-01-14 21:50:00,
2013-01-14 14:55:00,14.9,7.6,30.01,WSW,242,0.0,0.0,72,0.00,,,0.00,Weather View 32 v70,2013-01-14 21:55:00,
2013-01-14 15:00:00,14.8,7.6,30.01,WSW,242,0.0,0.0,73,0.00,,,0.00,Weather View 32 v70,2013-01-14 22:00:00,
2013-01-14 15:10:00,15.2,7.6,30.01,WSW,242,0.0,0.0,71,0.00,,,0.00,Weather View 32 v70,2013-01-14 22:10:00,
2013-01-14 15:15:00,15.4,7.7,30.01,WSW,242,0.0,0.0,71,0.00,,,0.00,Weather View 32 v70,2013-01-14 22:15:00,
2013-01-14 15:20:00,15.5,7.7,30.01,WSW,242,0.0,0.0,71,0.00,,,0.00,Weather View 32 v70,2013-01-14 22:20:00,
2013-01-14 15:30:00,15.6,7.8,30.02,WSW,242,0.0,0.0,71,0.00,,,0.00,Weather View 32 v70,2013-01-14 22:30:00,
2013-01-14 15:35:00,15.5,7.7,30.02,WSW,242,0.0,0.0,71,0.00,,,0.00,Weather View 32 v70,2013-01-14 22:35:00,
2013-01-14 15:40:00,15.3,7.7,30.02,WSW,242,0.0,0.0,71,0.00,,,0.00,Weather View 32 v70,2013-01-14 22:40:00,
2013-01-14 15:50:00,15.9,7.8,30.03,WSW,242,0.0,0.0,70,0.00,,,0.00,Weather View 32 v70,2013-01-14 22:50:00,
2013-01-14 15:55:00,15.6,7.4,30.03,WSW,242,0.0,0.0,70,0.00,,,0.00,Weather View 32 v70,2013-01-14 22:55:00,
2013-01-14 16:05:00,15.1,6.8,30.03,WSW,242,0.0,0.0,69,0.00,,,0.00,Weather View 32 v70,2013-01-14 23:05:00,
2013-01-14 16:13:00,14.7,6.7,30.03,WSW,242,0.0,0.0,70,0.00,,,0.00,Weather View 32 v70,2013-01-14 23:13:00,
2013-01-14 16:20:00,14.5,7.0,30.03,WSW,242,0.0,0.0,72,0.00,,,0.00,Weather View 32 v70,2013-01-14 23:20:00,
2013-01-14 16:30:00,14.4,6.9,30.04,WSW,242,0.0,0.0,72,0.00,,,0.00,Weather View 32 v70,2013-01-14 23:30:00,
2013-01-14 16:35:00,14.3,6.8,30.04,WSW,242,0.0,0.0,72,0.00,,,0.00,Weather View 32 v70,2013-01-14 23:35:00,
2013-01-14 16:45:00,14.0,6.6,30.05,WSW,242,0.0,0.0,72,0.00,,,0.00,Weather View 32 v70,2013-01-14 23:45:00,
2013-01-14 16:50:00,13.9,6.5,30.05,WSW,242,0.0,0.0,72,0.00,,,0.00,Weather View 32 v70,2013-01-14 23:50:00,
2013-01-14 17:00:00,13.5,6.3,30.05,WSW,242,0.0,0.0,72,0.00,,,0.00,Weather View 32 v70,2013-01-15 00:00:00,
2013-01-14 17:05:00,13.4,6.3,30.05,WSW,242,0.0,0.0,73,0.00,,,0.00,Weather View 32 v70,2013-01-15 00:05:00,
2013-01-14 17:14:00,13.1,6.1,30.06,WSW,242,0.0,0.0,73,0.00,,,0.00,Weather View 32 v70,2013-01-15 00:14:00,
2013-01-14 17:20:00,12.9,6.0,30.06,WSW,242,0.0,0.0,73,0.00,,,0.00,Weather View 32 v70,2013-01-15 00:20:00,
2013-01-14 17:30:00,12.6,5.6,30.06,WSW,242,0.0,0.0,73,0.00,,,0.00,Weather View 32 v70,2013-01-15 00:30:00,
2013-01-14 17:40:00,12.4,5.3,30.06,WSW,242,0.0,0.0,73,0.00,,,0.00,Weather View 32 v70,2013-01-15 00:40:00,
2013-01-14 17:45:00,12.3,5.2,30.06,WSW,242,0.0,0.0,73,0.00,,,0.00,Weather View 32 v70,2013-01-15 00:45:00,
2013-01-14 17:55:00,12.1,4.9,30.06,WSW,242,0.0,0.0,72,0.00,,,0.00,Weather View 32 v70,2013-01-15 00:55:00,
2013-01-14 18:05:00,12.1,5.0,30.06,WSW,242,0.0,0.0,73,0.00,,,0.00,Weather View 32 v70,2013-01-15 01:05:00,
2013-01-14 18:10:00,12.0,4.7,30.06,WSW,242,0.0,0.0,72,0.00,,,0.00,Weather View 32 v70,2013-01-15 01:10:00,
2013-01-14 18:20:00,11.9,4.6,30.07,WSW,242,0.0,0.0,72,0.00,,,0.00,Weather View 32 v70,2013-01-15 01:20:00,
2013-01-14 18:30:00,11.8,4.4,30.07,WSW,242,0.0,0.0,72,0.00,,,0.00,Weather View 32 v70,2013-01-15 01:30:00,
2013-01-14 18:40:00,11.7,4.2,30.06,WSW,242,0.0,0.0,71,0.00,,,0.00,Weather View 32 v70,2013-01-15 01:40:00,
2013-01-14 18:45:00,11.7,4.4,30.06,WSW,242,0.0,0.0,72,0.00,,,0.00,Weather View 32 v70,2013-01-15 01:45:00,
2013-01-14 18:55:00,11.7,4.7,30.06,WSW,242,0.0,0.0,73,0.00,,,0.00,Weather View 32 v70,2013-01-15 01:55:00,
2013-01-14 19:00:00,11.7,4.7,30.06,WSW,242,0.0,0.0,73,0.00,,,0.00,Weather View 32 v70,2013-01-15 02:00:00,
2013-01-14 19:10:00,11.3,4.7,30.06,WSW,242,0.0,0.0,74,0.00,,,0.00,Weather View 32 v70,2013-01-15 02:10:00,
2013-01-14 19:15:00,11.1,4.5,30.06,WSW,242,0.0,0.0,74,0.00,,,0.00,Weather View 32 v70,2013-01-15 02:15:00,
2013-01-14 19:25:00,10.5,4.3,30.06,WSW,242,0.0,0.0,76,0.00,,,0.00,Weather View 32 v70,2013-01-15 02:25:00,
2013-01-14 19:30:00,10.3,4.4,30.05,WSW,242,0.0,0.0,77,0.00,,,0.00,Weather View 32 v70,2013-01-15 02:30:00,
2013-01-14 19:35:00,10.0,4.2,30.05,WSW,242,0.0,0.0,77,0.00,,,0.00,Weather View 32 v70,2013-01-15 02:35:00,
2013-01-14 19:45:00,9.8,4.2,30.05,WSW,242,0.0,0.0,78,0.00,,,0.00,Weather View 32 v70,2013-01-15 02:45:00,
2013-01-14 19:50:00,9.7,4.3,30.05,WSW,242,0.0,0.0,78,0.00,,,0.00,Weather View 32 v70,2013-01-15 02:50:00,
2013-01-14 20:00:00,9.4,4.0,30.05,WSW,242,0.0,0.0,78,0.00,,,0.00,Weather View 32 v70,2013-01-15 03:00:00,
2013-01-14 20:10:00,9.4,3.7,30.05,WSW,242,0.0,0.0,77,0.00,,,0.00,Weather View 32 v70,2013-01-15 03:10:00,
2013-01-14 20:15:00,9.4,3.5,30.04,WSW,242,0.0,0.0,77,0.00,,,0.00,Weather View 32 v70,2013-01-15 03:15:00,
2013-01-14 20:25:00,9.3,3.4,30.04,WSW,242,0.0,0.0,77,0.00,,,0.00,Weather View 32 v70,2013-01-15 03:25:00,
2013-01-14 20:35:00,9.1,3.2,30.04,WSW,242,0.0,0.0,76,0.00,,,0.00,Weather View 32 v70,2013-01-15 03:35:00,
2013-01-14 20:40:00,9.4,3.3,30.04,WSW,242,0.0,0.0,76,0.00,,,0.00,Weather View 32 v70,2013-01-15 03:40:00,
2013-01-14 20:50:00,9.7,3.4,30.04,WSW,242,0.0,0.0,75,0.00,,,0.00,Weather View 32 v70,2013-01-15 03:50:00,
2013-01-14 21:00:00,9.6,3.2,30.04,WSW,242,0.0,0.0,75,0.00,,,0.00,Weather View 32 v70,2013-01-15 04:00:00,
2013-01-14 21:05:00,9.4,3.1,30.03,WSW,242,0.0,0.0,75,0.00,,,0.00,Weather View 32 v70,2013-01-15 04:05:00,
2013-01-14 21:15:00,8.6,2.7,30.03,WSW,242,0.0,0.0,76,0.00,,,0.00,Weather View 32 v70,2013-01-15 04:15:00,
2013-01-14 21:20:00,8.1,2.6,30.03,WSW,242,0.0,0.0,78,0.00,,,0.00,Weather View 32 v70,2013-01-15 04:20:00,
2013-01-14 21:30:00,7.3,2.4,30.03,WSW,242,0.0,0.0,80,0.00,,,0.00,Weather View 32 v70,2013-01-15 04:30:00,
2013-01-14 21:40:00,6.6,2.2,30.03,WSW,242,0.0,0.0,82,0.00,,,0.00,Weather View 32 v70,2013-01-15 04:40:00,
2013-01-14 21:50:00,6.1,1.9,30.03,WSW,242,0.0,0.0,82,0.00,,,0.00,Weather View 32 v70,2013-01-15 04:50:00,
2013-01-14 21:55:00,5.7,1.6,30.02,WSW,242,0.0,0.0,83,0.00,,,0.00,Weather View 32 v70,2013-01-15 04:55:00,
2013-01-14 22:05:00,4.7,0.8,30.03,WSW,242,0.0,0.0,83,0.00,,,0.00,Weather View 32 v70,2013-01-15 05:05:00,
2013-01-14 22:10:00,4.2,0.3,30.02,WSW,242,0.0,0.0,84,0.00,,,0.00,Weather View 32 v70,2013-01-15 05:10:00,
2013-01-14 22:15:00,4.0,0.1,30.02,WSW,242,0.0,0.0,83,0.00,,,0.00,Weather View 32 v70,2013-01-15 05:15:00,
2013-01-14 22:20:00,3.7,-0.2,30.02,WSW,242,0.0,0.0,83,0.00,,,0.00,Weather View 32 v70,2013-01-15 05:20:00,
2013-01-14 22:30:00,3.6,-0.4,30.02,WSW,242,0.0,0.0,83,0.00,,,0.00,Weather View 32 v70,2013-01-15 05:30:00,
2013-01-14 22:35:00,3.6,-0.5,30.02,WSW,242,0.0,0.0,83,0.00,,,0.00,Weather View 32 v70,2013-01-15 05:35:00,
2013-01-14 22:45:00,3.6,-0.4,30.02,WSW,242,0.0,0.0,83,0.00,,,0.00,Weather View 32 v70,2013-01-15 05:45:00,
2013-01-14 22:50:00,3.8,-0.3,30.02,WSW,242,0.0,0.0,83,0.00,,,0.00,Weather View 32 v70,2013-01-15 05:50:00,
2013-01-14 23:05:00,3.8,-0.3,30.02,WSW,242,0.0,0.0,83,0.00,,,0.00,Weather View 32 v70,2013-01-15 06:05:00,
2013-01-14 23:15:00,3.8,-0.5,30.02,WSW,242,0.0,0.0,82,0.00,,,0.00,Weather View 32 v70,2013-01-15 06:15:00,
2013-01-14 23:25:00,3.6,-0.6,30.02,WSW,242,0.0,0.0,82,0.00,,,0.00,Weather View 32 v70,2013-01-15 06:25:00,
2013-01-14 23:35:00,3.4,-0.9,30.01,WSW,242,0.0,0.0,82,0.00,,,0.00,Weather View 32 v70,2013-01-15 06:35:00,
2013-01-14 23:40:00,3.3,-0.9,30.01,WSW,242,0.0,0.0,82,0.00,,,0.00,Weather View 32 v70,2013-01-15 06:40:00,
2013-01-14 23:45:00,3.1,-1.1,30.01,WSW,242,0.0,0.0,82,0.00,,,0.00,Weather View 32 v70,2013-01-15 06:45:00,
2013-01-14 23:55:00,3.1,-1.2,30.01,WSW,242,0.0,0.0,82,0.00,,,0.00,Weather View 32 v70,2013-01-15 06:55:00,